North Platte Regional Airport Lee Bird Field
KLBF : rendu visible

Aérodrome :











RETROUVEZ-NOUS SUR...

 
LOGIN :

S'inscrire | Disclaimer

   EN    FR    IT 

 









Légende :    VFR   VFR Marginal   IFR   IFR Intensif   IFR Très Intensif
Visi : 
Plafond : 
>= 8 km
>= 3000ft
5 à 8 km
1000 à 3000 ft
1500m à 5 km
500 à 1000 ft
800 à 1500m
200 à 500 ft
< 800m
< 200 ft
Symboles :   Orages  Brouillard  Fortes neiges  Fortes précipitations  Vent > 20 kt






- Altitude de l'aérodrome : 2777 ft
- Code IATA : LBF


KLBF - North Platte Regional Lee Bird Field

DERNIER METAR :
  • 260753Z AUTO 31005KT 10SM CLR M03/M04 A3001 RMK AO2 SLP172 T10281044

METARs EXPIRÉS :
  • 260653Z AUTO 30006KT 10SM CLR M03/M05 A3001 RMK AO2 SLP177 T10331050
  • 260553Z AUTO 34006KT 10SM CLR M02/M03 A3001 RMK AO2 SLP179 T10221033 10067 21033 401441078 53010

TAF KLBF
Valide du 26 à 06h jusqu'au 27 à 06h UTC


260520Z 2606/2706 29006KT P6SM SCT120



MET'MAP, la Météo Aéronautique d'un coup d'oeil ! - Copyright ORBIFLY Décembre 2007 - Disclaimer

ORBIFLY MET'MAP TEAM :

Programmation & Développement : Alexandra Zaïnal
Sur une idée originale de : Baudouin d'Aumeries
Assistance à la programmation : Marc-Olivier Méhu
Soutien technique & logistique : Manuel Goepfert

Contact : metmap@orbifly.com




SOURCES & CREDITS :

   NOAA       Earth
Advisory